sensor_id;sensor_type;location;lat;lon;timestamp;pressure;altitude;pressure_sealevel;temperature;humidity
21900;BME280;11114;50.658;12.704;2022-07-09T00:01:43;97121.44;;;15.36;69.45
21900;BME280;11114;50.658;12.704;2022-07-09T00:04:10;97119.81;;;15.27;69.41
21900;BME280;11114;50.658;12.704;2022-07-09T00:06:36;97122.59;;;15.25;69.57
21900;BME280;11114;50.658;12.704;2022-07-09T00:09:05;97112.91;;;15.26;69.74
21900;BME280;11114;50.658;12.704;2022-07-09T00:11:34;97117.81;;;15.29;69.70
21900;BME280;11114;50.658;12.704;2022-07-09T00:14:06;97115.69;;;15.24;69.77
21900;BME280;11114;50.658;12.704;2022-07-09T00:16:33;97115.16;;;15.21;69.74
21900;BME280;11114;50.658;12.704;2022-07-09T00:19:00;97107.94;;;15.15;69.94
21900;BME280;11114;50.658;12.704;2022-07-09T00:21:27;97112.69;;;15.11;70.12
21900;BME280;11114;50.658;12.704;2022-07-09T00:23:53;97111.03;;;15.10;69.91
21900;BME280;11114;50.658;12.704;2022-07-09T00:26:20;97105.44;;;15.05;70.12
21900;BME280;11114;50.658;12.704;2022-07-09T00:28:47;97103.66;;;15.06;70.07
21900;BME280;11114;50.658;12.704;2022-07-09T00:31:14;97103.66;;;15.06;69.92
21900;BME280;11114;50.658;12.704;2022-07-09T00:33:41;97093.44;;;15.03;69.88
21900;BME280;11114;50.658;12.704;2022-07-09T00:36:07;97090.63;;;14.96;70.00
21900;BME280;11114;50.658;12.704;2022-07-09T00:38:34;97092.28;;;14.97;70.00
21900;BME280;11114;50.658;12.704;2022-07-09T00:41:02;97087.00;;;14.97;69.99
21900;BME280;11114;50.658;12.704;2022-07-09T00:43:29;97084.25;;;14.99;70.10
21900;BME280;11114;50.658;12.704;2022-07-09T00:45:57;97081.44;;;15.00;70.29
21900;BME280;11114;50.658;12.704;2022-07-09T00:48:24;97087.88;;;15.06;70.02
21900;BME280;11114;50.658;12.704;2022-07-09T00:50:51;97081.94;;;15.04;70.03
21900;BME280;11114;50.658;12.704;2022-07-09T00:53:24;97083.91;;;15.02;70.02
21900;BME280;11114;50.658;12.704;2022-07-09T00:55:51;97075.19;;;15.01;70.07
21900;BME280;11114;50.658;12.704;2022-07-09T00:58:20;97069.44;;;14.98;70.06
21900;BME280;11114;50.658;12.704;2022-07-09T01:00:48;97071.72;;;14.93;70.21
21900;BME280;11114;50.658;12.704;2022-07-09T01:03:15;97069.59;;;14.88;70.48
21900;BME280;11114;50.658;12.704;2022-07-09T01:05:42;97076.97;;;14.85;70.32
21900;BME280;11114;50.658;12.704;2022-07-09T01:08:09;97067.44;;;14.84;70.61
21900;BME280;11114;50.658;12.704;2022-07-09T01:10:36;97060.22;;;14.86;70.67
21900;BME280;11114;50.658;12.704;2022-07-09T01:13:04;97053.66;;;14.90;70.46
21900;BME280;11114;50.658;12.704;2022-07-09T01:15:31;97048.25;;;14.91;70.46
21900;BME280;11114;50.658;12.704;2022-07-09T01:17:58;97044.75;;;14.83;70.76
21900;BME280;11114;50.658;12.704;2022-07-09T01:20:27;97047.38;;;14.83;70.84
21900;BME280;11114;50.658;12.704;2022-07-09T01:22:56;97046.75;;;14.81;71.21
21900;BME280;11114;50.658;12.704;2022-07-09T01:25:39;97039.84;;;14.88;71.33
21900;BME280;11114;50.658;12.704;2022-07-09T01:28:08;97044.94;;;14.89;71.49
21900;BME280;11114;50.658;12.704;2022-07-09T01:30:38;97046.09;;;14.95;71.26
21900;BME280;11114;50.658;12.704;2022-07-09T01:33:05;97035.59;;;14.95;71.39
21900;BME280;11114;50.658;12.704;2022-07-09T01:35:32;97033.44;;;14.98;71.57
21900;BME280;11114;50.658;12.704;2022-07-09T01:37:59;97025.06;;;15.03;71.45
21900;BME280;11114;50.658;12.704;2022-07-09T01:40:26;97029.03;;;15.07;71.43
21900;BME280;11114;50.658;12.704;2022-07-09T01:42:53;97028.84;;;15.08;71.28
21900;BME280;11114;50.658;12.704;2022-07-09T01:45:20;97019.81;;;15.11;71.39
21900;BME280;11114;50.658;12.704;2022-07-09T01:47:47;97020.16;;;15.16;71.27
21900;BME280;11114;50.658;12.704;2022-07-09T01:50:14;97014.72;;;15.17;71.43
21900;BME280;11114;50.658;12.704;2022-07-09T01:52:40;97012.56;;;15.21;71.26
21900;BME280;11114;50.658;12.704;2022-07-09T01:55:08;97009.47;;;15.25;71.34
21900;BME280;11114;50.658;12.704;2022-07-09T01:57:34;97003.69;;;15.22;71.47
21900;BME280;11114;50.658;12.704;2022-07-09T02:00:03;97007.03;;;15.24;71.43
21900;BME280;11114;50.658;12.704;2022-07-09T02:02:38;97001.75;;;15.24;71.32
21900;BME280;11114;50.658;12.704;2022-07-09T02:05:05;96997.47;;;15.15;71.34
21900;BME280;11114;50.658;12.704;2022-07-09T02:07:32;96996.63;;;15.14;71.67
21900;BME280;11114;50.658;12.704;2022-07-09T02:09:59;96995.50;;;15.17;71.60
21900;BME280;11114;50.658;12.704;2022-07-09T02:12:26;96987.75;;;15.15;71.65
21900;BME280;11114;50.658;12.704;2022-07-09T02:14:53;96985.97;;;15.16;71.83
21900;BME280;11114;50.658;12.704;2022-07-09T02:17:20;96991.03;;;15.17;71.69
21900;BME280;11114;50.658;12.704;2022-07-09T02:19:47;96989.88;;;15.20;71.71
21900;BME280;11114;50.658;12.704;2022-07-09T02:22:14;96985.97;;;15.16;71.61
21900;BME280;11114;50.658;12.704;2022-07-09T02:24:41;96985.97;;;15.16;71.89
21900;BME280;11114;50.658;12.704;2022-07-09T02:27:07;96989.72;;;15.21;71.81
21900;BME280;11114;50.658;12.704;2022-07-09T02:29:34;96989.91;;;15.28;71.62
21900;BME280;11114;50.658;12.704;2022-07-09T02:32:01;96985.31;;;15.30;71.54
21900;BME280;11114;50.658;12.704;2022-07-09T02:34:28;96979.38;;;15.28;71.63
21900;BME280;11114;50.658;12.704;2022-07-09T02:36:54;96987.94;;;15.30;71.57
21900;BME280;11114;50.658;12.704;2022-07-09T02:39:21;96982.84;;;15.28;71.63
21900;BME280;11114;50.658;12.704;2022-07-09T02:41:48;96979.72;;;15.25;71.53
21900;BME280;11114;50.658;12.704;2022-07-09T02:44:15;96986.13;;;15.22;71.73
21900;BME280;11114;50.658;12.704;2022-07-09T02:46:41;96981.00;;;15.21;71.81
21900;BME280;11114;50.658;12.704;2022-07-09T02:49:08;96978.88;;;15.24;71.84
21900;BME280;11114;50.658;12.704;2022-07-09T02:51:36;96977.09;;;15.25;71.68
21900;BME280;11114;50.658;12.704;2022-07-09T02:54:04;96979.38;;;15.28;71.70
21900;BME280;11114;50.658;12.704;2022-07-09T02:56:31;96971.34;;;15.29;71.59
21900;BME280;11114;50.658;12.704;2022-07-09T02:58:58;96982.66;;;15.30;71.72
21900;BME280;11114;50.658;12.704;2022-07-09T03:01:25;96986.13;;;15.30;71.72
21900;BME280;11114;50.658;12.704;2022-07-09T03:03:52;96982.00;;;15.28;71.60
21900;BME280;11114;50.658;12.704;2022-07-09T03:06:18;96982.84;;;15.28;71.58
21900;BME280;11114;50.658;12.704;2022-07-09T03:08:45;96991.41;;;15.30;71.67
21900;BME280;11114;50.658;12.704;2022-07-09T03:11:12;96988.28;;;15.35;71.58
21900;BME280;11114;50.658;12.704;2022-07-09T03:13:39;96988.28;;;15.35;71.43
21900;BME280;11114;50.658;12.704;2022-07-09T03:16:06;96984.31;;;15.39;71.57
21900;BME280;11114;50.658;12.704;2022-07-09T03:18:33;96988.41;;;15.41;71.55
21900;BME280;11114;50.658;12.704;2022-07-09T03:21:00;96982.31;;;15.49;71.44
21900;BME280;11114;50.658;12.704;2022-07-09T03:23:27;96989.53;;;15.47;71.42
21900;BME280;11114;50.658;12.704;2022-07-09T03:25:54;96982.97;;;15.51;71.38
21900;BME280;11114;50.658;12.704;2022-07-09T03:28:22;96980.63;;;15.56;71.30
21900;BME280;11114;50.658;12.704;2022-07-09T03:30:48;96978.34;;;15.61;71.12
21900;BME280;11114;50.658;12.704;2022-07-09T03:33:15;96990.50;;;15.62;71.07
21900;BME280;11114;50.658;12.704;2022-07-09T03:35:42;96982.09;;;15.66;71.08
21900;BME280;11114;50.658;12.704;2022-07-09T03:38:10;96980.28;;;15.66;70.91
21900;BME280;11114;50.658;12.704;2022-07-09T03:40:36;96977.69;;;15.59;70.75
21900;BME280;11114;50.658;12.704;2022-07-09T03:43:03;96977.69;;;15.51;71.02
21900;BME280;11114;50.658;12.704;2022-07-09T03:45:30;96979.69;;;15.49;71.16
21900;BME280;11114;50.658;12.704;2022-07-09T03:47:57;96975.09;;;15.43;71.24
21900;BME280;11114;50.658;12.704;2022-07-09T03:50:23;96984.31;;;15.39;71.34
21900;BME280;11114;50.658;12.704;2022-07-09T03:52:50;96980.69;;;15.40;71.43
21900;BME280;11114;50.658;12.704;2022-07-09T03:55:17;96971.13;;;15.47;71.49
21900;BME280;11114;50.658;12.704;2022-07-09T03:57:44;96979.00;;;15.55;71.28
21900;BME280;11114;50.658;12.704;2022-07-09T04:00:11;96981.00;;;15.53;71.27
21900;BME280;11114;50.658;12.704;2022-07-09T04:02:38;96975.56;;;15.46;71.40
21900;BME280;11114;50.658;12.704;2022-07-09T04:05:05;96974.41;;;15.49;71.56
21900;BME280;11114;50.658;12.704;2022-07-09T04:07:32;96967.50;;;15.48;71.52
21900;BME280;11114;50.658;12.704;2022-07-09T04:09:59;96975.41;;;15.48;71.46
21900;BME280;11114;50.658;12.704;2022-07-09T04:12:26;96970.47;;;15.45;71.46
21900;BME280;11114;50.658;12.704;2022-07-09T04:14:53;96973.09;;;15.45;71.59
21900;BME280;11114;50.658;12.704;2022-07-09T04:17:19;96972.75;;;15.48;71.79
21900;BME280;11114;50.658;12.704;2022-07-09T04:19:46;96980.63;;;15.56;71.74
21900;BME280;11114;50.658;12.704;2022-07-09T04:22:13;96976.50;;;15.61;71.57
21900;BME280;11114;50.658;12.704;2022-07-09T04:24:40;96977.34;;;15.62;71.77
21900;BME280;11114;50.658;12.704;2022-07-09T04:27:07;96983.72;;;15.67;71.56
21900;BME280;11114;50.658;12.704;2022-07-09T04:29:33;96968.78;;;15.67;71.65
21900;BME280;11114;50.658;12.704;2022-07-09T04:32:00;96982.59;;;15.69;71.53
21900;BME280;11114;50.658;12.704;2022-07-09T04:34:27;96986.84;;;15.78;71.68
21900;BME280;11114;50.658;12.704;2022-07-09T04:36:54;96996.34;;;15.79;71.53
21900;BME280;11114;50.658;12.704;2022-07-09T04:39:21;96988.13;;;15.82;71.39
21900;BME280;11114;50.658;12.704;2022-07-09T04:41:51;96996.69;;;15.84;71.56
21900;BME280;11114;50.658;12.704;2022-07-09T04:44:18;96996.69;;;15.84;71.44
21900;BME280;11114;50.658;12.704;2022-07-09T04:46:45;96998.81;;;15.89;71.35
21900;BME280;11114;50.658;12.704;2022-07-09T04:49:11;97006.88;;;15.87;71.36
21900;BME280;11114;50.658;12.704;2022-07-09T04:51:38;97001.13;;;15.84;71.49
21900;BME280;11114;50.658;12.704;2022-07-09T04:54:05;97001.63;;;15.79;71.45
21900;BME280;11114;50.658;12.704;2022-07-09T04:56:32;96993.38;;;15.82;71.55
21900;BME280;11114;50.658;12.704;2022-07-09T04:58:59;96991.19;;;15.94;71.59
21900;BME280;11114;50.658;12.704;2022-07-09T05:01:30;96986.03;;;16.08;71.11
21900;BME280;11114;50.658;12.704;2022-07-09T05:03:57;96983.16;;;16.26;70.73
21900;BME280;11114;50.658;12.704;2022-07-09T05:06:24;96973.78;;;16.31;70.50
21900;BME280;11114;50.658;12.704;2022-07-09T05:08:51;96973.41;;;16.34;70.31
21900;BME280;11114;50.658;12.704;2022-07-09T05:11:18;96985.28;;;16.38;70.44
21900;BME280;11114;50.658;12.704;2022-07-09T05:13:45;96981.59;;;16.47;70.11
21900;BME280;11114;50.658;12.704;2022-07-09T05:16:15;96986.22;;;16.45;70.04
21900;BME280;11114;50.658;12.704;2022-07-09T05:18:42;96972.03;;;16.46;70.27
21900;BME280;11114;50.658;12.704;2022-07-09T05:21:09;96974.16;;;16.50;70.20
21900;BME280;11114;50.658;12.704;2022-07-09T05:23:37;96968.69;;;16.52;70.09
21900;BME280;11114;50.658;12.704;2022-07-09T05:26:04;96974.22;;;16.65;69.89
21900;BME280;11114;50.658;12.704;2022-07-09T05:28:30;96973.50;;;16.71;69.87
21900;BME280;11114;50.658;12.704;2022-07-09T05:30:58;96979.56;;;16.79;69.83
21900;BME280;11114;50.658;12.704;2022-07-09T05:33:45;96977.41;;;16.83;69.84
21900;BME280;11114;50.658;12.704;2022-07-09T05:36:16;96977.66;;;16.88;69.68
21900;BME280;11114;50.658;12.704;2022-07-09T05:38:46;96988.41;;;16.86;69.77
21900;BME280;11114;50.658;12.704;2022-07-09T05:41:16;96987.28;;;16.81;69.79
21900;BME280;11114;50.658;12.704;2022-07-09T05:43:43;96988.56;;;16.85;69.87
21900;BME280;11114;50.658;12.704;2022-07-09T05:46:10;96983.66;;;16.82;69.82
21900;BME280;11114;50.658;12.704;2022-07-09T05:48:37;96996.84;;;16.82;69.98
21900;BME280;11114;50.658;12.704;2022-07-09T05:51:05;96989.41;;;16.85;69.99
21900;BME280;11114;50.658;12.704;2022-07-09T05:53:32;96989.09;;;16.80;70.10
21900;BME280;11114;50.658;12.704;2022-07-09T05:55:59;96990.91;;;16.80;70.00
21900;BME280;11114;50.658;12.704;2022-07-09T05:58:26;96992.09;;;16.77;70.01
21900;BME280;11114;50.658;12.704;2022-07-09T06:00:52;96984.00;;;16.79;70.38
21900;BME280;11114;50.658;12.704;2022-07-09T06:03:19;96987.28;;;16.81;70.25
21900;BME280;11114;50.658;12.704;2022-07-09T06:05:46;96989.06;;;16.88;69.80
21900;BME280;11114;50.658;12.704;2022-07-09T06:08:13;96987.16;;;16.97;70.00
21900;BME280;11114;50.658;12.704;2022-07-09T06:10:40;96979.91;;;16.99;70.11
21900;BME280;11114;50.658;12.704;2022-07-09T06:13:07;96983.53;;;16.98;70.06
21900;BME280;11114;50.658;12.704;2022-07-09T06:15:33;96987.16;;;16.97;70.07
21900;BME280;11114;50.658;12.704;2022-07-09T06:18:01;96991.84;;;16.87;70.10
21900;BME280;11114;50.658;12.704;2022-07-09T06:20:28;96978.59;;;16.95;70.15
21900;BME280;11114;50.658;12.704;2022-07-09T06:22:55;96979.19;;;17.05;70.04
21900;BME280;11114;50.658;12.704;2022-07-09T06:25:21;96970.66;;;17.17;69.97
21900;BME280;11114;50.658;12.704;2022-07-09T06:27:48;96979.03;;;17.21;70.14
21900;BME280;11114;50.658;12.704;2022-07-09T06:30:15;96974.94;;;17.18;69.89
21900;BME280;11114;50.658;12.704;2022-07-09T06:32:42;96981.06;;;17.19;69.80
21900;BME280;11114;50.658;12.704;2022-07-09T06:35:09;96976.50;;;17.27;69.84
21900;BME280;11114;50.658;12.704;2022-07-09T06:37:38;96974.34;;;17.31;69.74
21900;BME280;11114;50.658;12.704;2022-07-09T06:40:05;96970.00;;;17.37;69.55
21900;BME280;11114;50.658;12.704;2022-07-09T06:42:33;96964.81;;;17.44;69.43
21900;BME280;11114;50.658;12.704;2022-07-09T06:45:15;96959.66;;;17.50;69.33
21900;BME280;11114;50.658;12.704;2022-07-09T06:47:43;96958.91;;;17.56;69.11
21900;BME280;11114;50.658;12.704;2022-07-09T06:50:10;96965.50;;;17.75;68.84
21900;BME280;11114;50.658;12.704;2022-07-09T06:52:37;96967.19;;;17.82;68.69
21900;BME280;11114;50.658;12.704;2022-07-09T06:55:04;96961.38;;;17.87;69.05
21900;BME280;11114;50.658;12.704;2022-07-09T06:57:32;96960.81;;;17.91;68.62
21900;BME280;11114;50.658;12.704;2022-07-09T06:59:59;96968.47;;;17.86;68.56
21900;BME280;11114;50.658;12.704;2022-07-09T07:02:26;96956.38;;;17.92;68.41
21900;BME280;11114;50.658;12.704;2022-07-09T07:04:53;96963.47;;;17.91;68.14
21900;BME280;11114;50.658;12.704;2022-07-09T07:07:20;96960.56;;;17.86;68.34
21900;BME280;11114;50.658;12.704;2022-07-09T07:09:47;96962.84;;;17.75;68.48
21900;BME280;11114;50.658;12.704;2022-07-09T07:12:14;96956.19;;;17.64;68.79
21900;BME280;11114;50.658;12.704;2022-07-09T07:14:40;96962.09;;;17.66;68.86
21900;BME280;11114;50.658;12.704;2022-07-09T07:17:07;96958.66;;;17.66;68.78
21900;BME280;11114;50.658;12.704;2022-07-09T07:19:35;96955.81;;;17.67;68.51
21900;BME280;11114;50.658;12.704;2022-07-09T07:22:02;96957.72;;;17.73;68.55
21900;BME280;11114;50.658;12.704;2022-07-09T07:24:28;96952.38;;;17.67;68.51
21900;BME280;11114;50.658;12.704;2022-07-09T07:26:57;96948.34;;;17.56;68.76
21900;BME280;11114;50.658;12.704;2022-07-09T07:29:24;96949.44;;;17.47;68.93
21900;BME280;11114;50.658;12.704;2022-07-09T07:31:51;96955.91;;;17.45;69.11
21900;BME280;11114;50.658;12.704;2022-07-09T07:34:18;96953.44;;;17.43;69.15
21900;BME280;11114;50.658;12.704;2022-07-09T07:36:49;96957.81;;;17.36;69.32
21900;BME280;11114;50.658;12.704;2022-07-09T07:39:17;96962.06;;;17.37;69.51
21900;BME280;11114;50.658;12.704;2022-07-09T07:41:44;96967.19;;;17.39;69.48
21900;BME280;11114;50.658;12.704;2022-07-09T07:44:11;96952.81;;;17.41;69.54
21900;BME280;11114;50.658;12.704;2022-07-09T07:46:38;96951.81;;;17.42;69.46
21900;BME280;11114;50.658;12.704;2022-07-09T07:49:05;96952.63;;;17.43;69.44
21900;BME280;11114;50.658;12.704;2022-07-09T07:51:31;96948.16;;;17.43;69.33
21900;BME280;11114;50.658;12.704;2022-07-09T07:53:58;96953.44;;;17.43;69.37
21900;BME280;11114;50.658;12.704;2022-07-09T07:56:25;96947.34;;;17.43;69.58
21900;BME280;11114;50.658;12.704;2022-07-09T07:58:51;96946.88;;;17.39;69.74
21900;BME280;11114;50.658;12.704;2022-07-09T08:01:18;96942.69;;;17.45;69.77
21900;BME280;11114;50.658;12.704;2022-07-09T08:03:45;96943.91;;;17.57;69.47
21900;BME280;11114;50.658;12.704;2022-07-09T08:06:12;96936.69;;;17.80;69.28
21900;BME280;11114;50.658;12.704;2022-07-09T08:08:39;96927.00;;;18.01;68.74
21900;BME280;11114;50.658;12.704;2022-07-09T08:11:05;96932.91;;;18.17;68.15
21900;BME280;11114;50.658;12.704;2022-07-09T08:13:33;96933.63;;;18.26;68.13
21900;BME280;11114;50.658;12.704;2022-07-09T08:16:00;96933.78;;;18.39;68.40
21900;BME280;11114;50.658;12.704;2022-07-09T08:18:29;96935.69;;;18.45;67.81
21900;BME280;11114;50.658;12.704;2022-07-09T08:20:56;96939.75;;;18.47;67.93
21900;BME280;11114;50.658;12.704;2022-07-09T08:23:23;96941.56;;;18.61;68.13
21900;BME280;11114;50.658;12.704;2022-07-09T08:25:50;96935.50;;;18.67;67.55
21900;BME280;11114;50.658;12.704;2022-07-09T08:28:17;96941.91;;;18.58;67.24
21900;BME280;11114;50.658;12.704;2022-07-09T08:30:44;96939.84;;;18.54;67.54
21900;BME280;11114;50.658;12.704;2022-07-09T08:33:11;96943.13;;;18.56;67.68
21900;BME280;11114;50.658;12.704;2022-07-09T08:35:40;96939.09;;;18.60;67.01
21900;BME280;11114;50.658;12.704;2022-07-09T08:38:06;96929.66;;;18.51;66.91
21900;BME280;11114;50.658;12.704;2022-07-09T08:40:33;96925.41;;;18.35;67.68
21900;BME280;11114;50.658;12.704;2022-07-09T08:43:03;96932.63;;;18.27;67.23
21900;BME280;11114;50.658;12.704;2022-07-09T08:45:30;96925.50;;;18.42;67.33
21900;BME280;11114;50.658;12.704;2022-07-09T08:48:00;96911.53;;;18.69;66.97
21900;BME280;11114;50.658;12.704;2022-07-09T08:50:27;96915.56;;;18.92;66.50
21900;BME280;11114;50.658;12.704;2022-07-09T08:52:54;96919.59;;;19.09;66.06
21900;BME280;11114;50.658;12.704;2022-07-09T08:55:22;96925.38;;;19.12;65.18
21900;BME280;11114;50.658;12.704;2022-07-09T08:57:50;96920.69;;;19.14;64.75
21900;BME280;11114;50.658;12.704;2022-07-09T09:00:17;96923.56;;;18.98;64.60
21900;BME280;11114;50.658;12.704;2022-07-09T09:02:44;96918.56;;;18.83;65.35
21900;BME280;11114;50.658;12.704;2022-07-09T09:05:15;96925.78;;;18.74;65.36
21900;BME280;11114;50.658;12.704;2022-07-09T09:07:42;96926.13;;;18.65;65.38
21900;BME280;11114;50.658;12.704;2022-07-09T09:10:23;96916.53;;;18.64;65.47
21900;BME280;11114;50.658;12.704;2022-07-09T09:12:57;96912.53;;;18.68;65.47
21900;BME280;11114;50.658;12.704;2022-07-09T09:15:25;96909.50;;;18.71;65.47
21900;BME280;11114;50.658;12.704;2022-07-09T09:17:52;96914.78;;;18.71;65.29
21900;BME280;11114;50.658;12.704;2022-07-09T09:20:20;96911.97;;;18.72;65.33
21900;BME280;11114;50.658;12.704;2022-07-09T09:22:49;96902.25;;;18.58;65.07
21900;BME280;11114;50.658;12.704;2022-07-09T09:25:18;96909.09;;;18.53;65.03
21900;BME280;11114;50.658;12.704;2022-07-09T09:27:56;96902.53;;;18.63;65.55
21900;BME280;11114;50.658;12.704;2022-07-09T09:30:24;96901.41;;;18.79;65.13
21900;BME280;11114;50.658;12.704;2022-07-09T09:32:58;96901.25;;;18.80;64.93
21900;BME280;11114;50.658;12.704;2022-07-09T09:35:32;96887.81;;;18.82;64.66
21900;BME280;11114;50.658;12.704;2022-07-09T09:37:59;96890.09;;;18.85;64.84
21900;BME280;11114;50.658;12.704;2022-07-09T09:40:26;96891.03;;;19.04;64.86
21900;BME280;11114;50.658;12.704;2022-07-09T09:42:53;96899.91;;;19.11;64.85
21900;BME280;11114;50.658;12.704;2022-07-09T09:45:23;96896.75;;;19.01;64.42
21900;BME280;11114;50.658;12.704;2022-07-09T09:47:51;96898.97;;;18.77;64.20
21900;BME280;11114;50.658;12.704;2022-07-09T09:50:20;96895.38;;;18.64;65.11
21900;BME280;11114;50.658;12.704;2022-07-09T09:52:49;96892.69;;;18.57;65.19
21900;BME280;11114;50.658;12.704;2022-07-09T09:55:19;96897.03;;;18.65;65.76
21900;BME280;11114;50.658;12.704;2022-07-09T09:57:46;96891.81;;;18.71;65.92
21900;BME280;11114;50.658;12.704;2022-07-09T10:00:14;96891.31;;;18.82;66.27
21900;BME280;11114;50.658;12.704;2022-07-09T10:02:43;96887.16;;;19.00;67.02
21900;BME280;11114;50.658;12.704;2022-07-09T10:05:10;96886.66;;;19.11;66.72
21900;BME280;11114;50.658;12.704;2022-07-09T10:07:38;96888.91;;;19.14;66.82
21900;BME280;11114;50.658;12.704;2022-07-09T10:10:06;96878.59;;;18.98;66.53
21900;BME280;11114;50.658;12.704;2022-07-09T10:12:40;96874.72;;;18.95;66.82
21900;BME280;11114;50.658;12.704;2022-07-09T10:15:20;96867.63;;;19.01;67.37
21900;BME280;11114;50.658;12.704;2022-07-09T10:17:48;96873.94;;;19.00;66.88
21900;BME280;11114;50.658;12.704;2022-07-09T10:20:16;96878.38;;;19.00;67.16
21900;BME280;11114;50.658;12.704;2022-07-09T10:22:44;96879.09;;;18.88;67.02
21900;BME280;11114;50.658;12.704;2022-07-09T10:25:13;96877.66;;;18.85;67.02
21900;BME280;11114;50.658;12.704;2022-07-09T10:27:48;96888.31;;;18.71;67.08
21900;BME280;11114;50.658;12.704;2022-07-09T10:30:29;96884.31;;;18.75;67.20
21900;BME280;11114;50.658;12.704;2022-07-09T10:35:29;96876.78;;;18.99;67.42
21900;BME280;11114;50.658;12.704;2022-07-09T10:37:56;96879.59;;;19.18;68.13
21900;BME280;11114;50.658;12.704;2022-07-09T10:40:23;96879.81;;;19.23;67.49
21900;BME280;11114;50.658;12.704;2022-07-09T10:43:01;96880.38;;;19.12;67.68
21900;BME280;11114;50.658;12.704;2022-07-09T10:48:02;96884.59;;;18.86;69.29
21900;BME280;11114;50.658;12.704;2022-07-09T10:50:31;96884.44;;;18.67;70.13
21900;BME280;11114;50.658;12.704;2022-07-09T10:52:58;96880.59;;;18.69;70.23
21900;BME280;11114;50.658;12.704;2022-07-09T10:55:29;96885.31;;;18.53;71.13
21900;BME280;11114;50.658;12.704;2022-07-09T10:57:57;96881.28;;;18.36;70.95
21900;BME280;11114;50.658;12.704;2022-07-09T11:00:26;96887.88;;;18.25;71.02
21900;BME280;11114;50.658;12.704;2022-07-09T11:02:57;96881.63;;;18.12;71.40
21900;BME280;11114;50.658;12.704;2022-07-09T11:05:25;96880.59;;;18.13;71.99
21900;BME280;11114;50.658;12.704;2022-07-09T11:07:56;96880.97;;;18.10;72.44
21900;BME280;11114;50.658;12.704;2022-07-09T11:10:24;96880.72;;;18.05;72.56
21900;BME280;11114;50.658;12.704;2022-07-09T11:12:52;96892.56;;;17.95;72.83
21900;BME280;11114;50.658;12.704;2022-07-09T11:15:20;96881.94;;;17.88;73.07
21900;BME280;11114;50.658;12.704;2022-07-09T11:17:54;96877.22;;;17.84;72.87
21900;BME280;11114;50.658;12.704;2022-07-09T11:20:22;96876.22;;;17.85;73.37
21900;BME280;11114;50.658;12.704;2022-07-09T11:22:51;96882.50;;;17.84;73.40
21900;BME280;11114;50.658;12.704;2022-07-09T11:25:24;96879.41;;;17.80;73.56
21900;BME280;11114;50.658;12.704;2022-07-09T11:27:52;96870.22;;;17.76;73.35
21900;BME280;11114;50.658;12.704;2022-07-09T11:30:19;96875.25;;;17.71;73.45
21900;BME280;11114;50.658;12.704;2022-07-09T11:32:46;96873.84;;;17.75;73.61
21900;BME280;11114;50.658;12.704;2022-07-09T11:35:24;96892.09;;;17.70;73.56
21900;BME280;11114;50.658;12.704;2022-07-09T11:37:51;96890.09;;;17.72;73.83
21900;BME280;11114;50.658;12.704;2022-07-09T11:40:19;96883.63;;;17.75;73.62
21900;BME280;11114;50.658;12.704;2022-07-09T11:42:46;96875.59;;;17.83;73.56
21900;BME280;11114;50.658;12.704;2022-07-09T11:45:14;96874.69;;;17.76;72.84
21900;BME280;11114;50.658;12.704;2022-07-09T11:47:41;96865.03;;;17.68;73.12
21900;BME280;11114;50.658;12.704;2022-07-09T11:50:16;96873.13;;;17.81;73.34
21900;BME280;11114;50.658;12.704;2022-07-09T11:52:50;96869.00;;;17.93;72.97
21900;BME280;11114;50.658;12.704;2022-07-09T11:55:28;96863.47;;;17.88;72.74
21900;BME280;11114;50.658;12.704;2022-07-09T11:58:02;96859.19;;;17.87;72.86
21900;BME280;11114;50.658;12.704;2022-07-09T12:00:36;96867.19;;;17.94;72.67
21900;BME280;11114;50.658;12.704;2022-07-09T12:03:06;96870.28;;;17.97;72.50
21900;BME280;11114;50.658;12.704;2022-07-09T12:05:34;96863.88;;;18.06;72.61
21900;BME280;11114;50.658;12.704;2022-07-09T12:08:07;96860.47;;;18.12;72.62
21900;BME280;11114;50.658;12.704;2022-07-09T12:10:38;96849.78;;;18.20;72.07
21900;BME280;11114;50.658;12.704;2022-07-09T12:13:06;96857.25;;;18.31;71.84
21900;BME280;11114;50.658;12.704;2022-07-09T12:15:33;96847.41;;;18.46;72.09
21900;BME280;11114;50.658;12.704;2022-07-09T12:18:01;96850.28;;;18.72;71.58
21900;BME280;11114;50.658;12.704;2022-07-09T12:20:30;96843.53;;;18.90;71.09
21900;BME280;11114;50.658;12.704;2022-07-09T12:22:58;96837.66;;;18.95;70.52
21900;BME280;11114;50.658;12.704;2022-07-09T12:25:24;96836.31;;;18.78;70.04
21900;BME280;11114;50.658;12.704;2022-07-09T12:27:51;96837.19;;;18.85;70.27
21900;BME280;11114;50.658;12.704;2022-07-09T12:30:18;96842.38;;;18.99;70.27
21900;BME280;11114;50.658;12.704;2022-07-09T12:32:47;96844.31;;;19.11;70.38
21900;BME280;11114;50.658;12.704;2022-07-09T12:35:14;96840.53;;;19.27;69.77
21900;BME280;11114;50.658;12.704;2022-07-09T12:37:41;96831.34;;;19.23;69.66
21900;BME280;11114;50.658;12.704;2022-07-09T12:40:09;96835.00;;;19.22;69.99
21900;BME280;11114;50.658;12.704;2022-07-09T12:42:40;96837.44;;;19.17;69.95
21900;BME280;11114;50.658;12.704;2022-07-09T12:45:08;96839.38;;;19.08;70.37
21900;BME280;11114;50.658;12.704;2022-07-09T12:47:36;96835.97;;;18.87;70.37
21900;BME280;11114;50.658;12.704;2022-07-09T12:50:04;96833.91;;;18.62;71.29
21900;BME280;11114;50.658;12.704;2022-07-09T12:52:31;96832.28;;;18.61;71.32
21900;BME280;11114;50.658;12.704;2022-07-09T12:55:00;96822.81;;;18.73;71.12
21900;BME280;11114;50.658;12.704;2022-07-09T12:57:28;96813.09;;;18.80;70.93
21900;BME280;11114;50.658;12.704;2022-07-09T12:59:55;96809.88;;;18.78;70.86